sensor_id;sensor_type;location;lat;lon;timestamp;P1;durP1;ratioP1;P2;durP2;ratioP2
5339;SDS011;2692;48.848;8.924;2022-11-28T00:03:48;4.20;;;2.40;;
5339;SDS011;2692;48.848;8.924;2022-11-28T00:06:13;5.63;;;3.37;;
5339;SDS011;2692;48.848;8.924;2022-11-28T00:08:38;5.03;;;3.20;;
5339;SDS011;2692;48.848;8.924;2022-11-28T00:11:04;4.50;;;3.13;;
5339;SDS011;2692;48.848;8.924;2022-11-28T00:13:29;3.20;;;2.40;;
5339;SDS011;2692;48.848;8.924;2022-11-28T00:15:55;9.97;;;2.90;;
5339;SDS011;2692;48.848;8.924;2022-11-28T00:18:21;8.10;;;2.73;;
5339;SDS011;2692;48.848;8.924;2022-11-28T00:20:46;4.60;;;2.20;;
5339;SDS011;2692;48.848;8.924;2022-11-28T00:23:11;3.20;;;2.37;;
5339;SDS011;2692;48.848;8.924;2022-11-28T00:25:36;7.30;;;3.20;;
5339;SDS011;2692;48.848;8.924;2022-11-28T00:28:01;5.00;;;2.97;;
5339;SDS011;2692;48.848;8.924;2022-11-28T00:30:27;5.90;;;2.23;;
5339;SDS011;2692;48.848;8.924;2022-11-28T00:32:52;7.80;;;2.77;;
5339;SDS011;2692;48.848;8.924;2022-11-28T00:35:17;5.30;;;3.85;;
5339;SDS011;2692;48.848;8.924;2022-11-28T00:37:42;4.57;;;2.90;;
5339;SDS011;2692;48.848;8.924;2022-11-28T00:40:07;3.63;;;2.50;;
5339;SDS011;2692;48.848;8.924;2022-11-28T00:42:33;7.40;;;2.90;;
5339;SDS011;2692;48.848;8.924;2022-11-28T00:44:58;7.40;;;4.03;;
5339;SDS011;2692;48.848;8.924;2022-11-28T00:47:23;3.20;;;2.50;;
5339;SDS011;2692;48.848;8.924;2022-11-28T00:49:48;4.47;;;2.33;;
5339;SDS011;2692;48.848;8.924;2022-11-28T00:52:13;10.13;;;3.60;;
5339;SDS011;2692;48.848;8.924;2022-11-28T00:54:39;25.17;;;3.20;;
5339;SDS011;2692;48.848;8.924;2022-11-28T00:57:04;5.50;;;2.90;;
5339;SDS011;2692;48.848;8.924;2022-11-28T00:59:29;2.17;;;1.92;;
5339;SDS011;2692;48.848;8.924;2022-11-28T01:01:54;5.57;;;3.03;;
5339;SDS011;2692;48.848;8.924;2022-11-28T01:04:19;4.77;;;3.00;;
5339;SDS011;2692;48.848;8.924;2022-11-28T01:06:46;2.83;;;2.35;;
5339;SDS011;2692;48.848;8.924;2022-11-28T01:09:15;6.10;;;2.70;;
5339;SDS011;2692;48.848;8.924;2022-11-28T01:11:41;5.67;;;2.93;;
5339;SDS011;2692;48.848;8.924;2022-11-28T01:14:07;5.30;;;2.87;;
5339;SDS011;2692;48.848;8.924;2022-11-28T01:16:33;5.70;;;3.40;;
5339;SDS011;2692;48.848;8.924;2022-11-28T01:18:58;3.13;;;2.00;;
5339;SDS011;2692;48.848;8.924;2022-11-28T01:21:23;2.97;;;2.27;;
5339;SDS011;2692;48.848;8.924;2022-11-28T01:23:49;3.70;;;2.97;;
5339;SDS011;2692;48.848;8.924;2022-11-28T01:26:18;8.43;;;3.30;;
5339;SDS011;2692;48.848;8.924;2022-11-28T01:28:44;4.87;;;2.10;;
5339;SDS011;2692;48.848;8.924;2022-11-28T01:31:10;2.67;;;1.67;;
5339;SDS011;2692;48.848;8.924;2022-11-28T01:33:36;4.20;;;2.73;;
5339;SDS011;2692;48.848;8.924;2022-11-28T01:36:01;4.40;;;2.40;;
5339;SDS011;2692;48.848;8.924;2022-11-28T01:38:27;3.50;;;2.10;;
5339;SDS011;2692;48.848;8.924;2022-11-28T01:40:52;2.27;;;1.77;;
5339;SDS011;2692;48.848;8.924;2022-11-28T01:43:18;4.30;;;2.17;;
5339;SDS011;2692;48.848;8.924;2022-11-28T01:45:43;6.10;;;2.07;;
5339;SDS011;2692;48.848;8.924;2022-11-28T01:48:09;3.63;;;2.67;;
5339;SDS011;2692;48.848;8.924;2022-11-28T01:50:35;3.27;;;2.10;;
5339;SDS011;2692;48.848;8.924;2022-11-28T01:53:02;2.23;;;1.20;;
5339;SDS011;2692;48.848;8.924;2022-11-28T01:55:29;2.50;;;1.83;;
5339;SDS011;2692;48.848;8.924;2022-11-28T01:57:55;3.67;;;1.60;;
5339;SDS011;2692;48.848;8.924;2022-11-28T02:00:21;4.40;;;2.37;;
5339;SDS011;2692;48.848;8.924;2022-11-28T02:02:47;4.47;;;2.20;;
5339;SDS011;2692;48.848;8.924;2022-11-28T02:05:12;5.63;;;3.27;;
5339;SDS011;2692;48.848;8.924;2022-11-28T02:07:38;7.53;;;1.80;;
5339;SDS011;2692;48.848;8.924;2022-11-28T02:10:04;7.23;;;3.70;;
5339;SDS011;2692;48.848;8.924;2022-11-28T02:12:40;6.73;;;3.03;;
5339;SDS011;2692;48.848;8.924;2022-11-28T02:28:34;3.83;;;3.20;;
5339;SDS011;2692;48.848;8.924;2022-11-28T02:33:54;4.43;;;2.90;;
5339;SDS011;2692;48.848;8.924;2022-11-28T02:46:24;7.18;;;2.90;;
5339;SDS011;2692;48.848;8.924;2022-11-28T02:48:51;4.77;;;2.97;;
5339;SDS011;2692;48.848;8.924;2022-11-28T02:51:22;4.50;;;2.30;;
5339;SDS011;2692;48.848;8.924;2022-11-28T02:53:48;2.63;;;1.87;;
5339;SDS011;2692;48.848;8.924;2022-11-28T02:56:14;7.13;;;2.20;;
5339;SDS011;2692;48.848;8.924;2022-11-28T02:58:40;4.47;;;1.70;;
5339;SDS011;2692;48.848;8.924;2022-11-28T03:01:06;6.43;;;3.23;;
5339;SDS011;2692;48.848;8.924;2022-11-28T03:06:23;3.77;;;2.00;;
5339;SDS011;2692;48.848;8.924;2022-11-28T03:11:19;4.53;;;2.30;;
5339;SDS011;2692;48.848;8.924;2022-11-28T03:13:56;2.60;;;2.00;;
5339;SDS011;2692;48.848;8.924;2022-11-28T03:16:33;2.67;;;1.93;;
5339;SDS011;2692;48.848;8.924;2022-11-28T03:19:14;9.00;;;2.10;;
5339;SDS011;2692;48.848;8.924;2022-11-28T03:21:44;4.13;;;2.00;;
5339;SDS011;2692;48.848;8.924;2022-11-28T03:24:16;3.40;;;1.97;;
5339;SDS011;2692;48.848;8.924;2022-11-28T03:29:14;3.27;;;2.43;;
5339;SDS011;2692;48.848;8.924;2022-11-28T03:31:41;3.33;;;1.80;;
5339;SDS011;2692;48.848;8.924;2022-11-28T03:34:07;6.20;;;2.70;;
5339;SDS011;2692;48.848;8.924;2022-11-28T03:36:38;3.03;;;1.90;;
5339;SDS011;2692;48.848;8.924;2022-11-28T03:39:07;2.67;;;1.60;;
5339;SDS011;2692;48.848;8.924;2022-11-28T03:41:34;9.97;;;2.17;;
5339;SDS011;2692;48.848;8.924;2022-11-28T03:44:00;1.67;;;1.37;;
5339;SDS011;2692;48.848;8.924;2022-11-28T03:46:30;3.27;;;2.03;;
5339;SDS011;2692;48.848;8.924;2022-11-28T03:48:57;6.40;;;2.57;;
5339;SDS011;2692;48.848;8.924;2022-11-28T03:51:26;3.63;;;1.63;;
5339;SDS011;2692;48.848;8.924;2022-11-28T03:53:57;3.67;;;1.90;;
5339;SDS011;2692;48.848;8.924;2022-11-28T03:58:51;3.97;;;2.10;;
5339;SDS011;2692;48.848;8.924;2022-11-28T04:04:18;2.87;;;1.90;;
5339;SDS011;2692;48.848;8.924;2022-11-28T04:06:53;2.70;;;1.53;;
5339;SDS011;2692;48.848;8.924;2022-11-28T04:09:34;3.70;;;1.57;;
5339;SDS011;2692;48.848;8.924;2022-11-28T04:12:03;2.20;;;1.93;;
5339;SDS011;2692;48.848;8.924;2022-11-28T04:14:31;3.77;;;1.83;;
5339;SDS011;2692;48.848;8.924;2022-11-28T04:20:56;2.20;;;1.67;;
5339;SDS011;2692;48.848;8.924;2022-11-28T04:22:51;3.70;;;1.70;;
5339;SDS011;2692;48.848;8.924;2022-11-28T04:25:18;2.57;;;1.93;;
5339;SDS011;2692;48.848;8.924;2022-11-28T04:27:47;4.53;;;2.10;;
5339;SDS011;2692;48.848;8.924;2022-11-28T04:30:13;2.83;;;1.50;;
5339;SDS011;2692;48.848;8.924;2022-11-28T04:32:40;2.50;;;1.40;;
5339;SDS011;2692;48.848;8.924;2022-11-28T04:35:10;4.13;;;1.77;;
5339;SDS011;2692;48.848;8.924;2022-11-28T04:37:37;5.30;;;2.50;;
5339;SDS011;2692;48.848;8.924;2022-11-28T04:40:03;2.20;;;1.30;;
5339;SDS011;2692;48.848;8.924;2022-11-28T04:42:30;6.13;;;2.17;;
5339;SDS011;2692;48.848;8.924;2022-11-28T04:44:57;2.37;;;1.90;;
5339;SDS011;2692;48.848;8.924;2022-11-28T04:47:25;4.00;;;1.97;;
5339;SDS011;2692;48.848;8.924;2022-11-28T04:49:50;1.87;;;1.67;;
5339;SDS011;2692;48.848;8.924;2022-11-28T04:52:23;2.70;;;1.57;;
5339;SDS011;2692;48.848;8.924;2022-11-28T04:55:00;1.90;;;1.60;;
5339;SDS011;2692;48.848;8.924;2022-11-28T04:57:47;2.90;;;1.70;;
5339;SDS011;2692;48.848;8.924;2022-11-28T05:00:13;5.47;;;1.40;;
5339;SDS011;2692;48.848;8.924;2022-11-28T05:02:39;6.07;;;2.90;;
5339;SDS011;2692;48.848;8.924;2022-11-28T05:05:09;3.33;;;1.80;;
5339;SDS011;2692;48.848;8.924;2022-11-28T05:07:35;2.90;;;2.43;;
5339;SDS011;2692;48.848;8.924;2022-11-28T05:10:00;5.00;;;1.70;;
5339;SDS011;2692;48.848;8.924;2022-11-28T05:12:25;2.43;;;1.93;;
5339;SDS011;2692;48.848;8.924;2022-11-28T05:14:50;2.90;;;1.83;;
5339;SDS011;2692;48.848;8.924;2022-11-28T05:17:15;3.23;;;1.97;;
5339;SDS011;2692;48.848;8.924;2022-11-28T05:19:41;3.00;;;1.60;;
5339;SDS011;2692;48.848;8.924;2022-11-28T05:22:06;2.20;;;1.50;;
5339;SDS011;2692;48.848;8.924;2022-11-28T05:24:31;2.67;;;2.03;;
5339;SDS011;2692;48.848;8.924;2022-11-28T05:26:56;3.10;;;1.50;;
5339;SDS011;2692;48.848;8.924;2022-11-28T05:29:21;2.10;;;1.47;;
5339;SDS011;2692;48.848;8.924;2022-11-28T05:31:48;3.43;;;1.80;;
5339;SDS011;2692;48.848;8.924;2022-11-28T05:34:13;3.63;;;1.90;;
5339;SDS011;2692;48.848;8.924;2022-11-28T05:36:39;2.13;;;1.40;;
5339;SDS011;2692;48.848;8.924;2022-11-28T05:39:04;1.87;;;1.37;;
5339;SDS011;2692;48.848;8.924;2022-11-28T05:41:30;4.00;;;2.00;;
5339;SDS011;2692;48.848;8.924;2022-11-28T05:43:55;3.80;;;2.77;;
5339;SDS011;2692;48.848;8.924;2022-11-28T05:46:21;2.47;;;1.83;;
5339;SDS011;2692;48.848;8.924;2022-11-28T05:48:46;2.93;;;1.43;;
5339;SDS011;2692;48.848;8.924;2022-11-28T05:51:11;1.10;;;0.83;;
5339;SDS011;2692;48.848;8.924;2022-11-28T05:53:36;4.07;;;1.87;;
5339;SDS011;2692;48.848;8.924;2022-11-28T05:56:08;4.60;;;1.50;;
5339;SDS011;2692;48.848;8.924;2022-11-28T05:58:34;1.30;;;1.10;;
5339;SDS011;2692;48.848;8.924;2022-11-28T06:00:59;2.27;;;1.57;;
5339;SDS011;2692;48.848;8.924;2022-11-28T06:03:24;2.13;;;1.75;;
5339;SDS011;2692;48.848;8.924;2022-11-28T06:05:49;8.27;;;2.70;;
5339;SDS011;2692;48.848;8.924;2022-11-28T06:08:14;1.57;;;1.33;;
5339;SDS011;2692;48.848;8.924;2022-11-28T06:10:40;3.57;;;1.97;;
5339;SDS011;2692;48.848;8.924;2022-11-28T06:13:05;2.73;;;1.10;;
5339;SDS011;2692;48.848;8.924;2022-11-28T06:15:31;3.40;;;1.93;;
5339;SDS011;2692;48.848;8.924;2022-11-28T06:17:56;2.90;;;1.77;;
5339;SDS011;2692;48.848;8.924;2022-11-28T06:20:21;1.67;;;1.10;;
5339;SDS011;2692;48.848;8.924;2022-11-28T06:22:46;1.50;;;1.27;;
5339;SDS011;2692;48.848;8.924;2022-11-28T06:25:11;2.40;;;1.43;;
5339;SDS011;2692;48.848;8.924;2022-11-28T06:27:37;3.60;;;1.70;;
5339;SDS011;2692;48.848;8.924;2022-11-28T06:30:02;1.97;;;1.40;;
5339;SDS011;2692;48.848;8.924;2022-11-28T06:32:27;3.10;;;2.13;;
5339;SDS011;2692;48.848;8.924;2022-11-28T06:34:52;3.73;;;1.90;;
5339;SDS011;2692;48.848;8.924;2022-11-28T06:37:17;2.00;;;1.77;;
5339;SDS011;2692;48.848;8.924;2022-11-28T06:39:42;2.92;;;1.55;;
5339;SDS011;2692;48.848;8.924;2022-11-28T06:42:08;2.67;;;1.63;;
5339;SDS011;2692;48.848;8.924;2022-11-28T06:44:33;2.50;;;1.67;;
5339;SDS011;2692;48.848;8.924;2022-11-28T06:46:58;3.40;;;1.67;;
5339;SDS011;2692;48.848;8.924;2022-11-28T06:49:23;2.47;;;1.50;;
5339;SDS011;2692;48.848;8.924;2022-11-28T06:51:48;3.47;;;1.83;;
5339;SDS011;2692;48.848;8.924;2022-11-28T06:54:14;1.63;;;1.30;;
5339;SDS011;2692;48.848;8.924;2022-11-28T06:56:39;2.27;;;2.07;;
5339;SDS011;2692;48.848;8.924;2022-11-28T06:59:04;4.20;;;1.93;;
5339;SDS011;2692;48.848;8.924;2022-11-28T07:01:30;2.40;;;1.70;;
5339;SDS011;2692;48.848;8.924;2022-11-28T07:03:56;4.17;;;2.33;;
5339;SDS011;2692;48.848;8.924;2022-11-28T07:06:22;2.50;;;1.53;;
5339;SDS011;2692;48.848;8.924;2022-11-28T07:08:48;1.43;;;1.10;;
5339;SDS011;2692;48.848;8.924;2022-11-28T07:11:17;2.40;;;1.40;;
5339;SDS011;2692;48.848;8.924;2022-11-28T07:13:43;1.97;;;1.40;;
5339;SDS011;2692;48.848;8.924;2022-11-28T07:16:15;2.93;;;1.33;;
5339;SDS011;2692;48.848;8.924;2022-11-28T07:18:41;1.43;;;0.90;;
5339;SDS011;2692;48.848;8.924;2022-11-28T07:21:06;2.27;;;1.20;;
5339;SDS011;2692;48.848;8.924;2022-11-28T07:23:31;3.63;;;1.50;;
5339;SDS011;2692;48.848;8.924;2022-11-28T07:25:57;2.40;;;1.13;;
5339;SDS011;2692;48.848;8.924;2022-11-28T07:28:22;1.00;;;0.80;;
5339;SDS011;2692;48.848;8.924;2022-11-28T07:30:47;2.00;;;1.23;;
5339;SDS011;2692;48.848;8.924;2022-11-28T07:33:13;4.47;;;1.15;;
5339;SDS011;2692;48.848;8.924;2022-11-28T07:35:38;1.20;;;0.87;;
5339;SDS011;2692;48.848;8.924;2022-11-28T07:38:03;1.27;;;0.93;;
5339;SDS011;2692;48.848;8.924;2022-11-28T07:40:28;3.55;;;1.02;;
5339;SDS011;2692;48.848;8.924;2022-11-28T07:42:53;1.67;;;1.20;;
5339;SDS011;2692;48.848;8.924;2022-11-28T07:45:18;3.17;;;1.57;;
5339;SDS011;2692;48.848;8.924;2022-11-28T07:47:43;4.07;;;1.63;;
5339;SDS011;2692;48.848;8.924;2022-11-28T07:50:09;2.73;;;1.40;;
5339;SDS011;2692;48.848;8.924;2022-11-28T07:52:34;2.63;;;1.20;;
5339;SDS011;2692;48.848;8.924;2022-11-28T07:54:59;2.17;;;1.20;;
5339;SDS011;2692;48.848;8.924;2022-11-28T07:57:24;1.80;;;1.27;;
5339;SDS011;2692;48.848;8.924;2022-11-28T07:59:49;2.07;;;1.40;;
5339;SDS011;2692;48.848;8.924;2022-11-28T08:02:15;1.57;;;1.33;;
5339;SDS011;2692;48.848;8.924;2022-11-28T08:04:40;3.37;;;1.50;;
5339;SDS011;2692;48.848;8.924;2022-11-28T08:07:05;1.47;;;1.07;;
5339;SDS011;2692;48.848;8.924;2022-11-28T08:09:30;1.83;;;1.20;;
5339;SDS011;2692;48.848;8.924;2022-11-28T08:11:56;4.70;;;1.77;;
5339;SDS011;2692;48.848;8.924;2022-11-28T08:14:21;2.47;;;1.20;;
5339;SDS011;2692;48.848;8.924;2022-11-28T08:16:46;1.90;;;1.40;;
5339;SDS011;2692;48.848;8.924;2022-11-28T08:19:13;2.60;;;1.40;;
5339;SDS011;2692;48.848;8.924;2022-11-28T08:21:38;1.77;;;1.30;;
5339;SDS011;2692;48.848;8.924;2022-11-28T08:24:04;2.40;;;1.33;;
5339;SDS011;2692;48.848;8.924;2022-11-28T08:26:30;2.37;;;1.63;;
5339;SDS011;2692;48.848;8.924;2022-11-28T08:28:55;3.93;;;1.73;;
5339;SDS011;2692;48.848;8.924;2022-11-28T08:31:22;2.37;;;1.80;;
5339;SDS011;2692;48.848;8.924;2022-11-28T08:33:48;3.53;;;1.90;;
5339;SDS011;2692;48.848;8.924;2022-11-28T08:36:15;2.40;;;1.60;;
5339;SDS011;2692;48.848;8.924;2022-11-28T08:38:40;0.97;;;0.67;;
5339;SDS011;2692;48.848;8.924;2022-11-28T08:41:08;1.47;;;1.03;;
5339;SDS011;2692;48.848;8.924;2022-11-28T08:43:34;2.67;;;0.83;;
5339;SDS011;2692;48.848;8.924;2022-11-28T08:46:00;3.53;;;0.97;;
5339;SDS011;2692;48.848;8.924;2022-11-28T08:48:25;1.92;;;1.27;;
5339;SDS011;2692;48.848;8.924;2022-11-28T08:50:51;2.03;;;1.50;;
5339;SDS011;2692;48.848;8.924;2022-11-28T08:53:16;9.63;;;1.70;;
5339;SDS011;2692;48.848;8.924;2022-11-28T08:55:41;2.57;;;2.07;;
5339;SDS011;2692;48.848;8.924;2022-11-28T08:58:08;2.10;;;1.63;;
5339;SDS011;2692;48.848;8.924;2022-11-28T09:00:33;2.40;;;1.53;;
5339;SDS011;2692;48.848;8.924;2022-11-28T09:02:58;2.90;;;2.03;;
5339;SDS011;2692;48.848;8.924;2022-11-28T09:05:23;2.00;;;1.15;;
5339;SDS011;2692;48.848;8.924;2022-11-28T09:07:48;5.20;;;2.37;;
5339;SDS011;2692;48.848;8.924;2022-11-28T09:10:13;3.33;;;2.30;;
5339;SDS011;2692;48.848;8.924;2022-11-28T09:12:39;4.70;;;2.20;;
5339;SDS011;2692;48.848;8.924;2022-11-28T09:15:04;4.20;;;2.10;;
5339;SDS011;2692;48.848;8.924;2022-11-28T09:17:29;2.43;;;1.40;;
5339;SDS011;2692;48.848;8.924;2022-11-28T09:19:54;5.03;;;2.30;;
5339;SDS011;2692;48.848;8.924;2022-11-28T09:22:20;2.83;;;1.90;;
5339;SDS011;2692;48.848;8.924;2022-11-28T09:24:45;1.58;;;1.13;;
5339;SDS011;2692;48.848;8.924;2022-11-28T09:27:10;3.40;;;2.23;;
5339;SDS011;2692;48.848;8.924;2022-11-28T09:29:35;6.33;;;3.17;;
5339;SDS011;2692;48.848;8.924;2022-11-28T09:32:00;7.80;;;3.43;;
5339;SDS011;2692;48.848;8.924;2022-11-28T09:34:25;4.17;;;2.43;;
5339;SDS011;2692;48.848;8.924;2022-11-28T09:36:51;5.00;;;2.07;;
5339;SDS011;2692;48.848;8.924;2022-11-28T09:39:16;6.43;;;2.13;;
5339;SDS011;2692;48.848;8.924;2022-11-28T09:41:43;1.87;;;1.10;;
5339;SDS011;2692;48.848;8.924;2022-11-28T09:46:39;5.32;;;1.75;;
5339;SDS011;2692;48.848;8.924;2022-11-28T09:49:13;1.17;;;0.87;;
5339;SDS011;2692;48.848;8.924;2022-11-28T09:52:27;4.63;;;2.90;;
5339;SDS011;2692;48.848;8.924;2022-11-28T09:54:30;6.90;;;2.47;;
5339;SDS011;2692;48.848;8.924;2022-11-28T09:56:58;4.57;;;2.20;;
5339;SDS011;2692;48.848;8.924;2022-11-28T09:59:28;9.20;;;3.37;;
5339;SDS011;2692;48.848;8.924;2022-11-28T10:02:08;3.10;;;1.97;;
5339;SDS011;2692;48.848;8.924;2022-11-28T10:04:46;3.00;;;2.30;;
5339;SDS011;2692;48.848;8.924;2022-11-28T10:07:18;3.20;;;2.13;;
5339;SDS011;2692;48.848;8.924;2022-11-28T10:09:50;4.53;;;1.60;;
5339;SDS011;2692;48.848;8.924;2022-11-28T10:18:09;4.10;;;2.10;;
5339;SDS011;2692;48.848;8.924;2022-11-28T10:20:43;2.37;;;1.23;;
5339;SDS011;2692;48.848;8.924;2022-11-28T10:23:21;2.00;;;1.27;;
5339;SDS011;2692;48.848;8.924;2022-11-28T10:25:58;3.03;;;1.63;;
5339;SDS011;2692;48.848;8.924;2022-11-28T10:28:25;2.50;;;1.40;;
5339;SDS011;2692;48.848;8.924;2022-11-28T10:30:53;2.87;;;1.30;;
5339;SDS011;2692;48.848;8.924;2022-11-28T10:33:36;2.70;;;1.60;;
5339;SDS011;2692;48.848;8.924;2022-11-28T10:36:04;4.90;;;2.53;;
5339;SDS011;2692;48.848;8.924;2022-11-28T10:38:30;3.87;;;2.40;;
5339;SDS011;2692;48.848;8.924;2022-11-28T10:41:15;6.20;;;3.60;;
5339;SDS011;2692;48.848;8.924;2022-11-28T10:46:22;1.57;;;1.07;;
5339;SDS011;2692;48.848;8.924;2022-11-28T10:48:57;3.33;;;1.10;;
5339;SDS011;2692;48.848;8.924;2022-11-28T10:56:42;26.20;;;7.20;;
5339;SDS011;2692;48.848;8.924;2022-11-28T11:00:11;6.87;;;2.87;;
5339;SDS011;2692;48.848;8.924;2022-11-28T11:04:48;4.00;;;2.07;;
5339;SDS011;2692;48.848;8.924;2022-11-28T11:07:18;9.53;;;2.93;;
5339;SDS011;2692;48.848;8.924;2022-11-28T11:09:46;2.03;;;1.30;;
5339;SDS011;2692;48.848;8.924;2022-11-28T11:12:14;2.53;;;1.80;;
5339;SDS011;2692;48.848;8.924;2022-11-28T11:14:43;4.83;;;1.90;;
5339;SDS011;2692;48.848;8.924;2022-11-28T11:17:22;2.60;;;1.83;;
5339;SDS011;2692;48.848;8.924;2022-11-28T11:19:48;1.57;;;1.10;;
5339;SDS011;2692;48.848;8.924;2022-11-28T11:22:23;6.27;;;1.70;;
5339;SDS011;2692;48.848;8.924;2022-11-28T11:25:09;3.03;;;1.53;;
5339;SDS011;2692;48.848;8.924;2022-11-28T11:27:37;2.60;;;1.43;;
5339;SDS011;2692;48.848;8.924;2022-11-28T11:30:22;1.63;;;1.20;;
5339;SDS011;2692;48.848;8.924;2022-11-28T11:32:49;2.60;;;1.30;;
5339;SDS011;2692;48.848;8.924;2022-11-28T11:35:24;1.23;;;0.80;;
5339;SDS011;2692;48.848;8.924;2022-11-28T11:37:50;2.60;;;1.60;;
5339;SDS011;2692;48.848;8.924;2022-11-28T11:42:57;2.80;;;1.70;;
5339;SDS011;2692;48.848;8.924;2022-11-28T11:47:48;2.43;;;1.30;;
5339;SDS011;2692;48.848;8.924;2022-11-28T11:50:17;2.07;;;0.90;;
5339;SDS011;2692;48.848;8.924;2022-11-28T11:52:43;2.90;;;1.33;;
5339;SDS011;2692;48.848;8.924;2022-11-28T11:55:10;1.50;;;0.80;;
5339;SDS011;2692;48.848;8.924;2022-11-28T11:57:38;3.20;;;1.43;;
5339;SDS011;2692;48.848;8.924;2022-11-28T12:00:13;3.30;;;1.50;;
5339;SDS011;2692;48.848;8.924;2022-11-28T12:02:40;4.00;;;2.40;;
5339;SDS011;2692;48.848;8.924;2022-11-28T12:05:20;3.70;;;2.03;;
5339;SDS011;2692;48.848;8.924;2022-11-28T12:07:54;1.93;;;1.40;;
5339;SDS011;2692;48.848;8.924;2022-11-28T12:10:22;7.43;;;2.70;;
5339;SDS011;2692;48.848;8.924;2022-11-28T12:12:48;4.77;;;2.27;;
5339;SDS011;2692;48.848;8.924;2022-11-28T12:23:15;4.50;;;2.23;;
5339;SDS011;2692;48.848;8.924;2022-11-28T12:28:24;5.78;;;2.17;;
5339;SDS011;2692;48.848;8.924;2022-11-28T12:36:19;5.00;;;2.10;;
5339;SDS011;2692;48.848;8.924;2022-11-28T12:41:22;5.63;;;2.47;;
5339;SDS011;2692;48.848;8.924;2022-11-28T12:43:56;3.70;;;1.93;;
5339;SDS011;2692;48.848;8.924;2022-11-28T12:46:41;4.13;;;2.23;;
5339;SDS011;2692;48.848;8.924;2022-11-28T12:49:14;2.90;;;2.00;;
5339;SDS011;2692;48.848;8.924;2022-11-28T12:54:29;7.50;;;2.60;;
5339;SDS011;2692;48.848;8.924;2022-11-28T12:57:14;5.17;;;2.70;;
5339;SDS011;2692;48.848;8.924;2022-11-28T13:14:51;19.43;;;9.37;;
5339;SDS011;2692;48.848;8.924;2022-11-28T13:17:28;10.80;;;6.67;;
5339;SDS011;2692;48.848;8.924;2022-11-28T13:23:03;8.30;;;4.20;;
5339;SDS011;2692;48.848;8.924;2022-11-28T13:28:31;5.57;;;3.20;;
5339;SDS011;2692;48.848;8.924;2022-11-28T13:31:05;5.17;;;3.90;;
5339;SDS011;2692;48.848;8.924;2022-11-28T13:34:07;14.47;;;5.03;;
5339;SDS011;2692;48.848;8.924;2022-11-28T13:36:28;4.17;;;3.43;;
5339;SDS011;2692;48.848;8.924;2022-11-28T13:38:58;5.57;;;3.00;;
5339;SDS011;2692;48.848;8.924;2022-11-28T13:46:22;3.80;;;3.10;;
5339;SDS011;2692;48.848;8.924;2022-11-28T13:53:39;5.88;;;2.97;;
5339;SDS011;2692;48.848;8.924;2022-11-28T13:58:33;5.60;;;3.13;;
5339;SDS011;2692;48.848;8.924;2022-11-28T14:03:31;5.23;;;2.07;;
5339;SDS011;2692;48.848;8.924;2022-11-28T14:05:57;8.37;;;3.80;;
5339;SDS011;2692;48.848;8.924;2022-11-28T14:08:34;6.77;;;3.10;;
5339;SDS011;2692;48.848;8.924;2022-11-28T14:13:34;5.10;;;2.97;;
5339;SDS011;2692;48.848;8.924;2022-11-28T14:18:56;4.17;;;2.20;;
5339;SDS011;2692;48.848;8.924;2022-11-28T14:21:26;4.03;;;2.80;;
5339;SDS011;2692;48.848;8.924;2022-11-28T14:23:58;3.63;;;2.03;;
5339;SDS011;2692;48.848;8.924;2022-11-28T14:26:31;17.33;;;3.23;;
5339;SDS011;2692;48.848;8.924;2022-11-28T14:28:57;4.63;;;3.10;;
5339;SDS011;2692;48.848;8.924;2022-11-28T14:31:24;5.53;;;3.20;;
5339;SDS011;2692;48.848;8.924;2022-11-28T14:34:01;6.07;;;3.00;;
5339;SDS011;2692;48.848;8.924;2022-11-28T14:36:34;7.40;;;3.80;;
5339;SDS011;2692;48.848;8.924;2022-11-28T14:39:04;5.93;;;3.03;;
5339;SDS011;2692;48.848;8.924;2022-11-28T14:41:29;6.00;;;3.83;;
5339;SDS011;2692;48.848;8.924;2022-11-28T14:44:05;7.33;;;3.10;;
5339;SDS011;2692;48.848;8.924;2022-11-28T14:47:03;7.80;;;4.33;;
5339;SDS011;2692;48.848;8.924;2022-11-28T14:49:25;12.57;;;5.17;;
5339;SDS011;2692;48.848;8.924;2022-11-28T14:54:35;5.43;;;3.97;;
5339;SDS011;2692;48.848;8.924;2022-11-28T14:57:01;8.30;;;4.83;;
5339;SDS011;2692;48.848;8.924;2022-11-28T14:59:29;4.33;;;3.20;;
5339;SDS011;2692;48.848;8.924;2022-11-28T15:02:00;4.57;;;3.20;;
5339;SDS011;2692;48.848;8.924;2022-11-28T15:07:00;3.23;;;2.83;;
5339;SDS011;2692;48.848;8.924;2022-11-28T15:09:47;5.67;;;3.93;;
5339;SDS011;2692;48.848;8.924;2022-11-28T15:12:21;6.70;;;3.20;;
5339;SDS011;2692;48.848;8.924;2022-11-28T15:14:50;8.53;;;5.70;;
5339;SDS011;2692;48.848;8.924;2022-11-28T15:17:19;15.60;;;7.83;;
5339;SDS011;2692;48.848;8.924;2022-11-28T15:19:45;29.97;;;8.20;;
5339;SDS011;2692;48.848;8.924;2022-11-28T15:22:27;11.57;;;7.27;;
5339;SDS011;2692;48.848;8.924;2022-11-28T15:24:53;13.70;;;5.13;;
5339;SDS011;2692;48.848;8.924;2022-11-28T15:27:22;9.33;;;4.60;;
5339;SDS011;2692;48.848;8.924;2022-11-28T15:29:51;7.30;;;4.70;;
5339;SDS011;2692;48.848;8.924;2022-11-28T15:32:17;8.63;;;5.03;;
5339;SDS011;2692;48.848;8.924;2022-11-28T15:34:42;8.73;;;5.20;;
5339;SDS011;2692;48.848;8.924;2022-11-28T15:37:16;23.40;;;5.70;;
5339;SDS011;2692;48.848;8.924;2022-11-28T15:39:47;9.77;;;6.10;;
5339;SDS011;2692;48.848;8.924;2022-11-28T15:42:18;11.00;;;6.33;;
5339;SDS011;2692;48.848;8.924;2022-11-28T15:44:43;7.80;;;4.77;;
5339;SDS011;2692;48.848;8.924;2022-11-28T15:47:18;8.30;;;5.20;;
5339;SDS011;2692;48.848;8.924;2022-11-28T15:49:44;6.57;;;4.83;;
5339;SDS011;2692;48.848;8.924;2022-11-28T15:52:16;11.40;;;5.40;;
5339;SDS011;2692;48.848;8.924;2022-11-28T15:54:42;6.37;;;4.90;;
5339;SDS011;2692;48.848;8.924;2022-11-28T15:57:17;7.13;;;4.83;;
5339;SDS011;2692;48.848;8.924;2022-11-28T15:59:43;7.47;;;5.10;;
5339;SDS011;2692;48.848;8.924;2022-11-28T16:02:13;16.83;;;5.63;;
5339;SDS011;2692;48.848;8.924;2022-11-28T16:04:40;6.40;;;4.30;;
5339;SDS011;2692;48.848;8.924;2022-11-28T16:07:05;12.27;;;5.73;;
5339;SDS011;2692;48.848;8.924;2022-11-28T16:09:31;7.60;;;4.70;;
5339;SDS011;2692;48.848;8.924;2022-11-28T16:11:59;8.70;;;5.47;;
5339;SDS011;2692;48.848;8.924;2022-11-28T16:14:27;5.73;;;5.10;;
5339;SDS011;2692;48.848;8.924;2022-11-28T16:16:52;12.13;;;3.93;;
5339;SDS011;2692;48.848;8.924;2022-11-28T16:19:21;13.03;;;5.50;;
5339;SDS011;2692;48.848;8.924;2022-11-28T16:21:54;6.03;;;4.20;;
5339;SDS011;2692;48.848;8.924;2022-11-28T16:24:41;10.13;;;4.93;;
5339;SDS011;2692;48.848;8.924;2022-11-28T16:27:22;5.73;;;4.10;;
5339;SDS011;2692;48.848;8.924;2022-11-28T16:29:49;5.30;;;3.37;;
5339;SDS011;2692;48.848;8.924;2022-11-28T16:32:19;4.60;;;2.67;;
5339;SDS011;2692;48.848;8.924;2022-11-28T16:34:46;4.30;;;3.03;;
5339;SDS011;2692;48.848;8.924;2022-11-28T16:37:12;4.40;;;2.80;;
5339;SDS011;2692;48.848;8.924;2022-11-28T16:39:37;3.80;;;3.27;;
5339;SDS011;2692;48.848;8.924;2022-11-28T16:42:12;3.30;;;2.00;;
5339;SDS011;2692;48.848;8.924;2022-11-28T16:44:38;2.17;;;1.97;;
5339;SDS011;2692;48.848;8.924;2022-11-28T16:47:04;6.83;;;2.90;;
5339;SDS011;2692;48.848;8.924;2022-11-28T16:54:54;5.27;;;2.50;;
5339;SDS011;2692;48.848;8.924;2022-11-28T16:57:20;4.20;;;2.90;;
5339;SDS011;2692;48.848;8.924;2022-11-28T16:59:45;3.47;;;2.43;;
5339;SDS011;2692;48.848;8.924;2022-11-28T17:02:18;6.13;;;2.90;;
5339;SDS011;2692;48.848;8.924;2022-11-28T17:04:45;7.40;;;1.70;;
5339;SDS011;2692;48.848;8.924;2022-11-28T17:07:11;14.03;;;3.40;;
5339;SDS011;2692;48.848;8.924;2022-11-28T17:09:37;3.30;;;2.67;;
5339;SDS011;2692;48.848;8.924;2022-11-28T17:12:04;3.93;;;2.63;;
5339;SDS011;2692;48.848;8.924;2022-11-28T17:14:30;18.10;;;3.07;;
5339;SDS011;2692;48.848;8.924;2022-11-28T17:16:55;5.17;;;2.37;;
5339;SDS011;2692;48.848;8.924;2022-11-28T17:19:20;2.70;;;1.80;;
5339;SDS011;2692;48.848;8.924;2022-11-28T17:21:47;3.60;;;2.20;;
5339;SDS011;2692;48.848;8.924;2022-11-28T17:26:39;3.23;;;2.27;;
5339;SDS011;2692;48.848;8.924;2022-11-28T17:29:06;4.67;;;1.83;;
5339;SDS011;2692;48.848;8.924;2022-11-28T17:31:31;11.80;;;3.07;;
5339;SDS011;2692;48.848;8.924;2022-11-28T17:33:56;4.63;;;2.40;;
5339;SDS011;2692;48.848;8.924;2022-11-28T17:36:21;3.87;;;1.90;;
5339;SDS011;2692;48.848;8.924;2022-11-28T17:38:47;2.70;;;2.20;;
5339;SDS011;2692;48.848;8.924;2022-11-28T17:41:12;2.17;;;1.77;;
5339;SDS011;2692;48.848;8.924;2022-11-28T17:43:38;2.33;;;1.90;;
5339;SDS011;2692;48.848;8.924;2022-11-28T17:46:03;2.90;;;1.97;;